createdAt,value
2023-02-22T00:00:59.990Z,79.86
2023-02-22T00:03:35.446Z,80.05
2023-02-22T00:06:05.308Z,80.03
2023-02-22T00:08:37.274Z,80.22
2023-02-22T00:11:09.071Z,80.13
2023-02-22T00:13:37.773Z,80.29
2023-02-22T00:16:05.982Z,80.37
2023-02-22T00:18:33.505Z,80.28
2023-02-22T00:21:01.428Z,80.39
2023-02-22T00:23:30.953Z,80.56
2023-02-22T00:26:00.088Z,80.57
2023-02-22T00:28:27.206Z,80.68
2023-02-22T00:30:55.251Z,80.76
2023-02-22T00:33:23.504Z,80.84
2023-02-22T00:35:50.700Z,80.82
2023-02-22T00:38:19.542Z,80.91
2023-02-22T00:40:46.732Z,80.81
2023-02-22T00:43:14.570Z,80.72
2023-02-22T00:45:42.697Z,80.92
2023-02-22T00:48:10.817Z,80.89
2023-02-22T00:50:38.023Z,81.02
2023-02-22T00:53:05.995Z,80.64
2023-02-22T00:55:35.940Z,80.76
2023-02-22T00:58:03.588Z,80.99
2023-02-22T01:00:37.361Z,80.91
2023-02-22T01:03:08.945Z,80.97
2023-02-22T01:05:38.652Z,81.43
2023-02-22T01:08:07.570Z,81.55
2023-02-22T01:10:36.222Z,81.73
2023-02-22T01:13:09.499Z,81.61
2023-02-22T01:15:39.026Z,81.57
2023-02-22T01:18:06.956Z,81.94
2023-02-22T01:20:35.090Z,81.99
2023-02-22T01:23:07.335Z,82.13
2023-02-22T01:25:36.247Z,81.86
2023-02-22T01:28:05.481Z,82.03
2023-02-22T01:30:34.612Z,81.90
2023-02-22T01:33:04.355Z,82.16
2023-02-22T01:35:34.917Z,81.99
2023-02-22T01:38:02.398Z,82.30
2023-02-22T01:40:35.460Z,82.32
2023-02-22T01:43:16.522Z,82.42
2023-02-22T01:45:45.578Z,82.56
2023-02-22T01:48:20.108Z,82.26
2023-02-22T01:51:11.633Z,82.17
2023-02-22T01:54:25.037Z,82.47
2023-02-22T01:56:57.819Z,82.17
2023-02-22T01:59:25.228Z,82.48
2023-02-22T02:01:52.212Z,82.62
2023-02-22T02:04:25.907Z,82.55
2023-02-22T02:06:55.559Z,82.62
2023-02-22T02:09:53.020Z,82.39
2023-02-22T02:12:23.714Z,83.07
2023-02-22T02:14:51.103Z,82.92
2023-02-22T02:17:23.069Z,82.77
2023-02-22T02:20:11.363Z,83.21
2023-02-22T02:23:02.049Z,82.94
2023-02-22T02:25:58.750Z,82.83
2023-02-22T02:29:03.839Z,83.44
2023-02-22T02:32:01.218Z,83.61
2023-02-22T02:34:37.577Z,83.97
2023-02-22T02:37:42.108Z,84.39
2023-02-22T02:40:33.024Z,84.11
2023-02-22T02:43:12.191Z,83.62
2023-02-22T02:45:50.224Z,83.81
2023-02-22T02:48:21.628Z,83.81
2023-02-22T02:50:50.437Z,84.16
2023-02-22T02:53:22.873Z,84.12
2023-02-22T02:55:49.973Z,83.88
2023-02-22T02:58:20.269Z,83.76
2023-02-22T03:00:49.888Z,84.32
2023-02-22T03:03:25.649Z,84.20
2023-02-22T03:06:14.405Z,84.20
2023-02-22T03:09:09.424Z,84.21
2023-02-22T03:11:49.045Z,84.39
2023-02-22T03:14:56.298Z,84.73
2023-02-22T03:18:01.794Z,84.84
2023-02-22T03:20:41.074Z,84.97
2023-02-22T03:23:16.204Z,85.02
2023-02-22T03:25:55.312Z,85.49
2023-02-22T03:28:26.843Z,85.15
2023-02-22T03:31:05.062Z,85.51
2023-02-22T03:33:43.968Z,85.84
2023-02-22T03:36:22.882Z,85.42
2023-02-22T03:38:51.332Z,85.80
2023-02-22T03:41:24.430Z,85.90
2023-02-22T03:44:01.115Z,85.62
2023-02-22T03:46:30.512Z,85.14
2023-02-22T03:49:11.002Z,84.56
2023-02-22T03:51:40.048Z,84.62
2023-02-22T03:54:08.338Z,84.62
2023-02-22T03:56:48.191Z,84.80
2023-02-22T03:59:15.744Z,85.04
2023-02-22T04:01:42.590Z,85.35
2023-02-22T04:04:09.716Z,85.66
2023-02-22T04:08:14.474Z,85.70
2023-02-22T04:10:41.962Z,85.26
2023-02-22T04:13:09.169Z,85.65
2023-02-22T04:15:36.807Z,85.98
2023-02-22T04:18:04.392Z,86.23
2023-02-22T04:20:32.051Z,85.71
2023-02-22T04:22:59.527Z,85.64
2023-02-22T04:25:26.547Z,85.69
2023-02-22T04:27:54.102Z,85.72
2023-02-22T04:30:21.666Z,85.56
2023-02-22T04:32:48.805Z,85.47
2023-02-22T04:35:16.194Z,85.52
2023-02-22T04:37:43.514Z,85.26
2023-02-22T04:40:11.873Z,85.42
2023-02-22T04:42:40.043Z,85.83
2023-02-22T04:45:09.643Z,85.79
2023-02-22T04:47:37.948Z,85.64
2023-02-22T04:50:07.495Z,85.75
2023-02-22T04:52:34.517Z,85.62
2023-02-22T04:55:01.738Z,86.10
2023-02-22T04:57:29.705Z,86.00
2023-02-22T04:59:57.264Z,85.91
2023-02-22T05:02:24.689Z,85.92
2023-02-22T05:04:52.049Z,85.87
2023-02-22T05:07:19.233Z,86.14
2023-02-22T05:09:46.566Z,86.10
2023-02-22T05:12:13.518Z,86.17
2023-02-22T05:14:40.660Z,86.45
2023-02-22T05:17:08.316Z,86.57
2023-02-22T05:19:35.485Z,86.66
2023-02-22T05:22:02.428Z,86.74
2023-02-22T05:24:29.874Z,86.32
2023-02-22T05:26:57.112Z,86.97
2023-02-22T05:29:24.153Z,86.87
2023-02-22T05:31:51.317Z,86.98
2023-02-22T05:34:18.563Z,87.31
2023-02-22T05:36:46.996Z,87.85
2023-02-22T05:39:14.355Z,87.73
2023-02-22T05:41:41.553Z,88.23
2023-02-22T05:44:08.545Z,88.15
2023-02-22T05:46:35.661Z,87.46
2023-02-22T05:49:03.318Z,87.31
2023-02-22T05:51:30.405Z,86.93
2023-02-22T05:53:57.553Z,86.80
2023-02-22T05:56:27.488Z,87.22
2023-02-22T05:58:55.064Z,87.51
2023-02-22T06:01:22.830Z,87.70
2023-02-22T06:03:51.596Z,87.40
2023-02-22T06:06:22.205Z,87.21
2023-02-22T06:08:49.800Z,87.25
2023-02-22T06:11:17.463Z,87.23
2023-02-22T06:13:51.002Z,87.42
2023-02-22T06:16:19.130Z,87.56
2023-02-22T06:18:46.365Z,87.74
2023-02-22T06:21:13.501Z,88.06
2023-02-22T06:23:40.915Z,88.44
2023-02-22T06:26:08.270Z,88.12
2023-02-22T06:28:35.356Z,88.10
2023-02-22T06:31:02.382Z,88.44
2023-02-22T06:33:29.858Z,88.57
2023-02-22T06:35:57.340Z,89.10
2023-02-22T06:38:26.307Z,89.53
2023-02-22T06:40:53.789Z,89.87
2023-02-22T06:43:21.876Z,90.19
2023-02-22T06:45:49.006Z,90.38
2023-02-22T06:48:15.911Z,90.89
2023-02-22T06:50:42.954Z,90.97
2023-02-22T06:53:10.003Z,91.18
2023-02-22T06:55:37.386Z,91.25
2023-02-22T06:58:05.590Z,91.47
2023-02-22T07:00:33.612Z,91.02
2023-02-22T07:03:01.676Z,90.15
2023-02-22T07:05:29.177Z,89.18
2023-02-22T07:08:04.428Z,89.61
2023-02-22T07:10:33.634Z,89.80
2023-02-22T07:13:01.956Z,89.66
2023-02-22T07:15:30.759Z,90.22
2023-02-22T07:17:58.073Z,90.80
2023-02-22T07:20:27.719Z,90.57
2023-02-22T07:22:55.344Z,90.39
2023-02-22T07:25:24.331Z,90.58
2023-02-22T07:27:53.011Z,90.83
2023-02-22T07:30:25.666Z,90.39
2023-02-22T07:32:55.241Z,90.58
2023-02-22T07:35:33.410Z,90.34
2023-02-22T07:38:00.956Z,89.93
2023-02-22T07:40:28.870Z,89.68
2023-02-22T07:43:15.046Z,89.53
2023-02-22T07:45:42.400Z,89.77
2023-02-22T07:48:09.874Z,89.87
2023-02-22T07:50:36.992Z,90.06
2023-02-22T07:53:06.843Z,90.37
2023-02-22T07:55:34.918Z,90.20
2023-02-22T07:58:05.581Z,90.09
2023-02-22T08:00:40.758Z,89.90
2023-02-22T08:03:10.835Z,89.27
2023-02-22T08:05:39.415Z,88.65
2023-02-22T08:08:08.133Z,89.04
2023-02-22T08:10:36.130Z,88.85
2023-02-22T08:13:05.174Z,88.03
2023-02-22T08:15:35.173Z,88.35
2023-02-22T08:18:05.665Z,87.76
2023-02-22T08:20:36.985Z,87.82
2023-02-22T08:23:05.448Z,88.05
2023-02-22T08:25:33.423Z,87.69
2023-02-22T08:28:02.862Z,86.51
2023-02-22T08:30:36.686Z,84.43
2023-02-22T08:33:06.527Z,84.52
2023-02-22T08:35:34.474Z,84.76
2023-02-22T08:38:05.173Z,83.51
2023-02-22T08:40:35.177Z,82.44
2023-02-22T08:43:03.019Z,81.45
2023-02-22T08:45:30.219Z,81.49
2023-02-22T08:47:59.632Z,79.71
2023-02-22T08:50:36.097Z,80.84
2023-02-22T08:53:05.662Z,80.56
2023-02-22T08:55:36.123Z,78.87
2023-02-22T08:58:04.911Z,78.81
2023-02-22T09:00:34.280Z,78.10
2023-02-22T09:03:05.996Z,78.09
2023-02-22T09:05:43.614Z,76.34
2023-02-22T09:08:24.521Z,77.33
2023-02-22T09:10:52.245Z,77.31
2023-02-22T09:13:19.638Z,75.88
2023-02-22T09:15:46.732Z,76.44
2023-02-22T09:18:14.974Z,77.53
2023-02-22T09:20:42.360Z,75.14
2023-02-22T09:23:10.627Z,75.15
2023-02-22T09:25:41.372Z,74.79
2023-02-22T09:28:08.557Z,76.70
2023-02-22T09:30:37.196Z,76.66
2023-02-22T09:33:16.897Z,75.75
2023-02-22T09:35:46.756Z,75.89
2023-02-22T09:38:17.303Z,75.69
2023-02-22T09:40:49.772Z,74.58
2023-02-22T09:43:41.109Z,75.13
2023-02-22T09:46:30.065Z,73.88
2023-02-22T09:49:21.049Z,74.64
2023-02-22T09:51:50.646Z,72.48
2023-02-22T09:55:07.045Z,72.69
2023-02-22T09:57:44.098Z,71.62
2023-02-22T10:00:24.766Z,70.45
2023-02-22T10:03:24.604Z,69.27
2023-02-22T10:06:06.605Z,67.39
2023-02-22T10:08:34.981Z,67.68
2023-02-22T10:11:11.294Z,65.05
2023-02-22T10:13:55.936Z,67.76
2023-02-22T10:16:53.947Z,67.54
2023-02-22T10:19:46.998Z,66.36
2023-02-22T10:22:39.598Z,63.30
2023-02-22T10:25:19.649Z,63.67
2023-02-22T10:27:57.221Z,64.26
2023-02-22T10:30:31.473Z,64.01
2023-02-22T10:33:22.758Z,61.83
2023-02-22T10:35:52.287Z,58.01
2023-02-22T10:38:27.738Z,58.32
2023-02-22T10:41:01.461Z,55.30
2023-02-22T10:43:28.500Z,57.31
2023-02-22T10:46:03.195Z,57.70
2023-02-22T10:48:35.796Z,58.54
2023-02-22T10:51:05.877Z,56.71
2023-02-22T10:53:36.417Z,53.74
2023-02-22T10:56:16.502Z,53.50
2023-02-22T10:58:48.288Z,57.19
2023-02-22T11:01:45.790Z,58.18
2023-02-22T11:04:15.206Z,59.05
2023-02-22T11:06:46.692Z,58.95
2023-02-22T11:09:24.322Z,58.34
2023-02-22T11:12:09.885Z,57.87
2023-02-22T11:14:37.216Z,58.88
2023-02-22T11:17:11.084Z,59.44
2023-02-22T11:19:52.056Z,58.54
2023-02-22T11:22:50.270Z,58.60
2023-02-22T11:25:25.407Z,57.92
2023-02-22T11:27:54.378Z,56.52
2023-02-22T11:30:33.579Z,56.17
2023-02-22T11:33:16.847Z,56.93
2023-02-22T11:36:05.093Z,54.92
2023-02-22T11:38:34.775Z,56.02
2023-02-22T11:41:05.082Z,54.05
2023-02-22T11:43:32.853Z,55.22
2023-02-22T11:46:08.545Z,54.50
2023-02-22T11:48:39.828Z,54.77
2023-02-22T11:51:31.472Z,54.19
2023-02-22T11:54:04.675Z,53.89
2023-02-22T11:56:40.905Z,55.70
2023-02-22T11:59:37.209Z,55.96
2023-02-22T12:02:29.397Z,56.16
2023-02-22T12:05:25.867Z,57.22
2023-02-22T12:08:19.212Z,57.17
2023-02-22T12:11:26.355Z,56.88
2023-02-22T12:14:12.353Z,57.40
2023-02-22T12:16:46.353Z,57.89
2023-02-22T12:19:33.790Z,57.33
2023-02-22T12:22:08.203Z,56.89
2023-02-22T12:24:57.957Z,57.46
2023-02-22T12:27:41.498Z,58.52
2023-02-22T12:30:47.249Z,58.04
2023-02-22T12:33:31.290Z,58.00
2023-02-22T12:36:01.006Z,57.91
2023-02-22T12:38:38.124Z,57.75
2023-02-22T12:41:14.328Z,58.12
2023-02-22T12:44:17.713Z,58.14
2023-02-22T12:46:49.726Z,57.82
2023-02-22T12:49:26.602Z,58.06
2023-02-22T12:52:20.528Z,56.84
2023-02-22T12:55:11.786Z,57.04
2023-02-22T12:58:26.359Z,56.55
2023-02-22T13:00:59.677Z,56.36
2023-02-22T13:03:34.960Z,55.92
2023-02-22T13:06:26.745Z,57.14
2023-02-22T13:09:15.119Z,56.97
2023-02-22T13:12:04.209Z,58.05
2023-02-22T13:14:45.027Z,57.82
2023-02-22T13:17:27.629Z,57.53
2023-02-22T13:20:00.819Z,57.63
2023-02-22T13:22:34.656Z,57.58
2023-02-22T13:25:21.253Z,57.96
2023-02-22T13:28:13.363Z,58.21
2023-02-22T13:30:47.792Z,58.41
2023-02-22T13:33:30.082Z,57.82
2023-02-22T13:36:12.988Z,58.49
2023-02-22T13:39:14.203Z,58.48
2023-02-22T13:41:51.858Z,57.65
2023-02-22T13:44:44.607Z,57.93
2023-02-22T13:47:46.750Z,58.28
2023-02-22T13:50:48.053Z,58.48
2023-02-22T13:53:17.644Z,58.98
2023-02-22T13:55:52.453Z,59.01
2023-02-22T13:58:21.198Z,58.92
2023-02-22T14:00:52.543Z,58.59
2023-02-22T14:03:24.825Z,59.06
2023-02-22T14:05:54.012Z,58.54
2023-02-22T14:08:22.442Z,58.51
2023-02-22T14:10:55.843Z,59.09
2023-02-22T14:13:28.203Z,59.23
2023-02-22T14:15:58.654Z,59.00
2023-02-22T14:18:31.040Z,59.13
2023-02-22T14:21:19.591Z,59.26
2023-02-22T14:23:57.565Z,58.45
2023-02-22T14:26:40.310Z,59.16
2023-02-22T14:29:08.201Z,58.89
2023-02-22T14:32:30.964Z,58.75
2023-02-22T14:35:09.511Z,59.10
2023-02-22T14:37:43.670Z,58.98
2023-02-22T14:40:26.195Z,59.29
2023-02-22T14:42:59.225Z,59.23
2023-02-22T14:45:33.629Z,59.17
2023-02-22T14:48:20.789Z,59.48
2023-02-22T14:50:53.845Z,59.82
2023-02-22T14:53:45.804Z,59.67
2023-02-22T14:56:54.396Z,59.28
2023-02-22T14:59:28.475Z,59.43
2023-02-22T15:02:13.539Z,59.46
2023-02-22T15:04:44.527Z,59.36
2023-02-22T15:07:28.248Z,59.78
2023-02-22T15:10:18.374Z,59.53
2023-02-22T15:13:09.882Z,59.85
2023-02-22T15:16:00.513Z,58.93
2023-02-22T15:18:40.414Z,59.62
2023-02-22T15:21:22.175Z,59.71
2023-02-22T15:23:53.867Z,59.53
2023-02-22T15:26:49.036Z,59.71
2023-02-22T15:29:32.572Z,59.63
2023-02-22T15:31:59.666Z,59.45
2023-02-22T15:34:32.345Z,59.87
2023-02-22T15:37:25.791Z,59.73
2023-02-22T15:39:59.774Z,60.10
2023-02-22T15:42:29.819Z,60.13
2023-02-22T15:44:58.636Z,60.58
2023-02-22T15:47:29.869Z,60.23
2023-02-22T15:50:24.442Z,60.64
2023-02-22T15:53:00.251Z,61.12
2023-02-22T15:55:37.114Z,61.71
2023-02-22T15:58:19.281Z,61.58
2023-02-22T16:00:51.446Z,62.09
2023-02-22T16:03:39.975Z,62.30
2023-02-22T16:06:13.017Z,62.62
2023-02-22T16:08:55.512Z,62.77
2023-02-22T16:11:30.410Z,62.93
2023-02-22T16:14:05.202Z,63.25
2023-02-22T16:16:36.021Z,63.78
2023-02-22T16:19:18.258Z,63.56
2023-02-22T16:21:59.191Z,63.96
2023-02-22T16:24:36.811Z,64.16
2023-02-22T16:27:19.303Z,64.76
2023-02-22T16:30:25.852Z,64.61
2023-02-22T16:32:55.836Z,64.64
2023-02-22T16:35:29.301Z,64.68
2023-02-22T16:38:02.247Z,64.97
2023-02-22T16:40:44.972Z,65.05
2023-02-22T16:43:19.113Z,65.18
2023-02-22T16:45:46.858Z,65.54
2023-02-22T16:48:39.033Z,65.79
2023-02-22T16:51:27.283Z,65.71
2023-02-22T16:53:56.172Z,66.47
2023-02-22T16:56:31.271Z,66.40
2023-02-22T16:59:01.922Z,66.60
2023-02-22T17:01:29.212Z,66.83
2023-02-22T17:03:56.611Z,66.92
2023-02-22T17:06:23.974Z,67.18
2023-02-22T17:08:52.523Z,67.10
2023-02-22T17:11:20.468Z,67.38
2023-02-22T17:13:52.226Z,67.58
2023-02-22T17:16:19.824Z,67.59
2023-02-22T17:18:47.487Z,67.56
2023-02-22T17:21:17.016Z,67.58
2023-02-22T17:23:47.586Z,67.75
2023-02-22T17:26:17.081Z,67.79
2023-02-22T17:28:45.063Z,67.84
2023-02-22T17:31:22.015Z,68.37
2023-02-22T17:33:57.010Z,68.35
2023-02-22T17:36:24.031Z,68.36
2023-02-22T17:38:51.190Z,68.32
2023-02-22T17:41:18.798Z,68.44
2023-02-22T17:43:45.822Z,68.66
2023-02-22T17:46:13.434Z,68.76
2023-02-22T17:48:40.902Z,69.06
2023-02-22T17:51:10.985Z,69.13
2023-02-22T17:53:39.503Z,69.00
2023-02-22T17:56:13.794Z,69.13
2023-02-22T17:58:42.029Z,69.36
2023-02-22T18:01:24.912Z,69.07
2023-02-22T18:03:53.458Z,69.48
2023-02-22T18:06:25.213Z,69.31
2023-02-22T18:08:56.530Z,69.57
2023-02-22T18:11:26.664Z,69.36
2023-02-22T18:13:58.229Z,69.43
2023-02-22T18:16:26.886Z,69.61
2023-02-22T18:18:55.898Z,69.54
2023-02-22T18:21:24.518Z,69.63
2023-02-22T18:23:51.515Z,69.74
2023-02-22T18:26:21.275Z,69.76
2023-02-22T18:28:51.760Z,69.80
2023-02-22T18:31:20.762Z,69.42
2023-02-22T18:33:51.273Z,69.71
2023-02-22T18:36:23.603Z,69.64
2023-02-22T18:38:53.759Z,69.38
2023-02-22T18:41:26.020Z,69.16
2023-02-22T18:43:55.745Z,69.19
2023-02-22T18:46:25.068Z,69.03
2023-02-22T18:48:54.989Z,68.97
2023-02-22T18:51:23.346Z,68.90
2023-02-22T18:53:55.669Z,68.68
2023-02-22T18:56:24.961Z,69.04
2023-02-22T18:58:55.269Z,68.91
2023-02-22T19:01:22.740Z,69.10
2023-02-22T19:03:52.032Z,69.28
2023-02-22T19:06:22.801Z,69.27
2023-02-22T19:08:51.463Z,69.30
2023-02-22T19:11:23.169Z,69.51
2023-02-22T19:13:54.206Z,69.55
2023-02-22T19:16:22.894Z,69.58
2023-02-22T19:18:52.779Z,69.62
2023-02-22T19:21:21.127Z,69.89
2023-02-22T19:23:49.145Z,69.91
2023-02-22T19:26:24.337Z,70.05
2023-02-22T19:28:53.770Z,69.86
2023-02-22T19:31:30.144Z,69.83
2023-02-22T19:34:02.171Z,69.83
2023-02-22T19:36:29.649Z,69.85
2023-02-22T19:39:02.248Z,69.84
2023-02-22T19:41:30.207Z,69.81
2023-02-22T19:43:57.652Z,69.90
2023-02-22T19:46:25.751Z,70.12
2023-02-22T19:48:54.088Z,70.04
2023-02-22T19:51:26.767Z,70.05
2023-02-22T19:53:59.150Z,70.16
2023-02-22T19:56:31.320Z,70.22
2023-02-22T19:59:09.817Z,69.92
2023-02-22T20:01:37.208Z,70.27
2023-02-22T20:04:10.052Z,70.27
2023-02-22T20:06:42.482Z,70.53
2023-02-22T20:09:13.760Z,70.81
2023-02-22T20:11:40.972Z,71.15
2023-02-22T20:14:08.066Z,71.17
2023-02-22T20:16:36.053Z,71.06
2023-02-22T20:19:03.175Z,71.19
2023-02-22T20:21:42.308Z,71.19
2023-02-22T20:24:21.129Z,71.06
2023-02-22T20:26:56.935Z,71.23
2023-02-22T20:29:29.941Z,71.31
2023-02-22T20:31:59.484Z,71.28
2023-02-22T20:34:27.670Z,71.38
2023-02-22T20:36:54.987Z,71.67
2023-02-22T20:39:22.289Z,71.58
2023-02-22T20:41:49.600Z,71.66
2023-02-22T20:44:19.021Z,71.68
2023-02-22T20:46:47.349Z,71.68
2023-02-22T20:49:17.932Z,71.68
2023-02-22T20:51:47.003Z,71.44
2023-02-22T20:54:14.982Z,71.52
2023-02-22T20:56:44.377Z,71.79
2023-02-22T20:59:14.553Z,71.60
2023-02-22T21:01:42.752Z,71.46
2023-02-22T21:04:11.600Z,71.64
2023-02-22T21:06:40.140Z,71.72
2023-02-22T21:09:12.212Z,71.87
2023-02-22T21:11:40.559Z,71.91
2023-02-22T21:14:08.940Z,72.18
2023-02-22T21:16:37.563Z,72.26
2023-02-22T21:19:07.440Z,72.19
2023-02-22T21:21:36.385Z,72.13
2023-02-22T21:24:04.059Z,72.35
2023-02-22T21:26:33.762Z,72.28
2023-02-22T21:29:06.639Z,71.95
2023-02-22T21:31:37.078Z,71.98
2023-02-22T21:34:04.767Z,71.71
2023-02-22T21:36:32.413Z,71.97
2023-02-22T21:39:09.976Z,71.82
2023-02-22T21:41:40.497Z,71.71
2023-02-22T21:44:07.811Z,71.77
2023-02-22T21:46:35.176Z,71.90
2023-02-22T21:49:02.306Z,71.81
2023-02-22T21:51:31.808Z,72.10
2023-02-22T21:54:01.424Z,72.05
2023-02-22T21:56:29.603Z,72.03
2023-02-22T21:58:59.567Z,72.40
2023-02-22T22:01:50.368Z,72.47
2023-02-22T22:04:20.559Z,72.67
2023-02-22T22:06:50.434Z,72.51
2023-02-22T22:09:22.222Z,72.50
2023-02-22T22:11:54.403Z,72.56
2023-02-22T22:14:23.883Z,72.78
2023-02-22T22:16:54.093Z,72.88
2023-02-22T22:19:21.577Z,72.75
2023-02-22T22:21:50.531Z,72.82
2023-02-22T22:24:20.408Z,73.06
2023-02-22T22:26:54.995Z,72.84
2023-02-22T22:29:28.941Z,72.88
2023-02-22T22:31:56.868Z,72.72
2023-02-22T22:34:24.759Z,73.00
2023-02-22T22:36:53.144Z,72.98
2023-02-22T22:39:21.395Z,72.89
2023-02-22T22:41:49.070Z,72.78
2023-02-22T22:44:22.555Z,73.06
2023-02-22T22:46:53.973Z,73.14
2023-02-22T22:49:24.062Z,73.40
2023-02-22T22:51:51.795Z,73.75
2023-02-22T22:54:18.826Z,73.76
2023-02-22T22:56:46.796Z,74.08
2023-02-22T22:59:14.355Z,74.20
2023-02-22T23:01:45.043Z,74.41
2023-02-22T23:04:19.198Z,74.42
2023-02-22T23:06:50.722Z,75.07
2023-02-22T23:09:19.713Z,74.70
2023-02-22T23:11:51.078Z,75.28
2023-02-22T23:14:24.354Z,75.17
2023-02-22T23:16:56.606Z,75.36
2023-02-22T23:19:23.586Z,75.65
2023-02-22T23:21:50.920Z,75.45
2023-02-22T23:24:21.315Z,75.65
2023-02-22T23:26:51.722Z,75.58
2023-02-22T23:29:22.362Z,75.83
2023-02-22T23:31:50.988Z,75.98
2023-02-22T23:34:21.488Z,76.45
2023-02-22T23:36:49.235Z,76.41
2023-02-22T23:39:22.372Z,77.02
2023-02-22T23:42:01.238Z,76.85
2023-02-22T23:44:29.166Z,77.21
2023-02-22T23:46:56.730Z,77.19
2023-02-22T23:49:26.929Z,77.59
2023-02-22T23:51:54.402Z,78.00
2023-02-22T23:54:24.664Z,78.43
2023-02-22T23:56:58.075Z,79.07
2023-02-22T23:59:27.182Z,79.25
